KOSH/OSH METAR and TAF weather

Enter ICAO airport designator
Station Type Date Time Source
KOSH METAR 2019/06/26 17:53 UTC NOAA

KOSH 261753Z 24003KT 10SM SCT060 27/14 A3004 RMK AO2 SLP159 T02670144 10272 20189 51006


Station Type Date Time Source
KOSH Decoded METAR 2019/06/26 17:53 UTC NOAA

WITTMAN REGIONAL AIRPORT, WI, United States (KOSH) 43-58N 88-33W 248M
Jun 26, 2019 - 01:53 PM EDT / 2019.06.26 1753 UTC
Wind: from the WSW (240 degrees) at 3 MPH (3 KT):0
Visibility: 10 mile(s):0
Sky conditions: partly cloudy
Temperature: 80.1 F (26.7 C)
Dew Point: 57.9 F (14.4 C)
Relative Humidity: 46%
Pressure (altimeter): 30.04 in. Hg (1017 hPa)
Pressure tendency: 0.02 inches (0.6 hPa) higher than three hours ago
ob: KOSH 261753Z 24003KT 10SM SCT060 27/14 A3004 RMK AO2 SLP159 T02670144 10272 20189 51006
cycle: 18

Station Type Date Time Source
KOSH TAF 2019/06/10 12:39 UTC NOAA

TAF
AMD KOSH 101137Z 1012/1112 32012G22KT P6SM BKN090
FM101400 32014G24KT P6SM SCT250
FM101900 32016KT P6SM SKC
FM110100 29007KT P6SM SKC
FM110300 26006KT P6SM FEW250

Example: see airport list